Time;durP1;ratioP1;P1;durP2;ratioP2;P2;SDS_P1;SDS_P2;PMS_P1;PMS_P2;Temp;Humidity;BMP_temperature;BMP_pressure;BME280_temperature;BME280_humidity;BME280_pressure;Samples;Min_cycle;Max_cycle;Signal;HPM_P1;HPM_P2
2022/04/29 04:00:19;;;;;;;18.65;11.25;;;6.20;99.90;;;;;;5978127;23;21279;-68
2022/04/29 04:02:46;;;;;;;19.00;12.23;;;6.10;99.90;;;;;;4972984;28;20291;-69
2022/04/29 04:05:12;;;;;;;14.68;13.02;;;6.20;99.90;;;;;;4973496;28;20259;-68
2022/04/29 04:07:40;;;;;;;16.55;12.32;;;6.20;99.90;;;;;;4974046;28;20255;-68
2022/04/29 04:10:07;;;;;;;19.45;12.23;;;6.20;99.90;;;;;;4966400;28;20228;-68
2022/04/29 04:12:42;;;;;;;22.52;12.82;;;6.20;99.90;;;;;;4974026;28;20622;-68
2022/04/29 04:15:11;;;;;;;26.48;12.95;;;6.30;99.90;;;;;;4996927;23;20692;-73
2022/04/29 04:17:39;;;;;;;18.27;13.30;;;6.30;99.90;;;;;;4973347;28;20275;-73
2022/04/29 04:20:08;;;;;;;20.30;13.00;;;6.30;99.90;;;;;;4973031;28;20207;-73
2022/04/29 04:22:35;;;;;;;27.40;13.80;;;6.30;99.90;;;;;;4973752;28;20223;-73
2022/04/29 04:25:03;;;;;;;25.33;12.15;;;6.30;99.90;;;;;;4973703;28;20323;-73
2022/04/29 04:27:31;;;;;;;20.00;11.40;;;6.40;99.90;;;;;;4972780;28;20295;-73
2022/04/29 04:29:58;;;;;;;17.92;12.38;;;6.40;99.90;;;;;;4972979;28;20275;-73
2022/04/29 04:32:24;;;;;;;14.20;9.85;;;6.40;99.90;;;;;;4973384;28;20378;-73
2022/04/29 04:34:53;;;;;;;19.25;12.70;;;6.40;99.90;;;;;;4973047;28;20649;-73
2022/04/29 04:37:21;;;;;;;23.50;12.73;;;6.40;99.90;;;;;;4973527;28;20215;-73
2022/04/29 04:39:48;;;;;;;18.77;13.00;;;6.50;99.90;;;;;;4972775;28;20254;-73
2022/04/29 04:42:15;;;;;;;20.35;11.35;;;6.60;99.90;;;;;;4973337;28;20300;-73
2022/04/29 04:44:43;;;;;;;18.30;11.02;;;6.70;99.90;;;;;;4973244;28;20212;-73
2022/04/29 04:47:10;;;;;;;17.38;10.45;;;6.70;99.90;;;;;;4973065;28;20259;-73
2022/04/29 04:49:37;;;;;;;18.02;11.05;;;6.70;99.90;;;;;;4973750;28;20228;-73
2022/04/29 04:52:05;;;;;;;18.73;11.30;;;6.70;99.90;;;;;;4975222;28;20205;-72
2022/04/29 04:54:32;;;;;;;18.27;10.00;;;6.70;99.90;;;;;;4973319;28;20653;-72
2022/04/29 04:56:59;;;;;;;13.77;10.30;;;6.70;99.90;;;;;;4971316;28;20239;-72
2022/04/29 04:59:26;;;;;;;18.48;11.13;;;6.70;99.90;;;;;;4982301;28;20204;-72
2022/04/29 05:01:53;;;;;;;15.98;10.82;;;6.70;99.90;;;;;;4992087;28;20715;-72
2022/04/29 05:04:20;;;;;;;17.27;9.60;;;6.70;99.90;;;;;;4991501;28;20218;-73
2022/04/29 05:06:47;;;;;;;13.20;9.05;;;6.70;99.90;;;;;;4992426;28;20255;-72
2022/04/29 05:09:15;;;;;;;13.82;8.85;;;6.70;99.90;;;;;;4992068;28;20231;-72
2022/04/29 05:11:42;;;;;;;20.10;10.20;;;6.70;99.90;;;;;;4991645;28;20207;-72
2022/04/29 05:14:09;;;;;;;12.20;9.05;;;6.70;99.90;;;;;;4991997;28;20751;-71
2022/04/29 05:16:36;;;;;;;12.45;8.75;;;6.70;99.90;;;;;;4991830;28;20239;-72
2022/04/29 05:19:03;;;;;;;13.95;9.35;;;6.70;99.90;;;;;;4991237;28;20207;-71
2022/04/29 05:21:29;;;;;;;18.70;10.55;;;6.80;99.90;;;;;;4991712;28;20204;-71
2022/04/29 05:23:56;;;;;;;16.02;10.43;;;6.80;99.90;;;;;;4992298;28;20743;-71
2022/04/29 05:26:24;;;;;;;13.93;9.73;;;6.80;99.90;;;;;;4992180;28;20227;-71
2022/04/29 05:28:51;;;;;;;17.98;10.73;;;6.90;99.90;;;;;;4991874;28;20231;-72
2022/04/29 05:31:18;;;;;;;14.85;8.73;;;6.90;99.90;;;;;;4991207;28;20681;-70
2022/04/29 05:33:45;;;;;;;12.13;10.00;;;6.90;99.90;;;;;;4991367;28;20549;-72
2022/04/29 05:36:13;;;;;;;13.60;9.50;;;6.90;99.90;;;;;;4992559;28;20232;-72
2022/04/29 05:44:10;;;;;;;14.13;9.88;;;7.10;99.90;;;;;;4991723;28;20595;-72
2022/04/29 05:46:37;;;;;;;16.00;9.13;;;7.20;99.90;;;;;;4974752;28;20228;-73
2022/04/29 05:49:04;;;;;;;15.40;8.93;;;7.30;99.90;;;;;;4985820;28;20223;-72
2022/04/29 05:51:31;;;;;;;28.60;17.55;;;7.30;99.90;;;;;;4990941;28;20636;-73
2022/04/29 05:54:00;;;;;;;20.27;11.10;;;7.30;99.90;;;;;;4991513;28;20243;-73
2022/04/29 05:56:28;;;;;;;14.02;9.82;;;7.50;99.90;;;;;;4991694;28;20239;-72
2022/04/29 05:58:55;;;;;;;18.33;10.93;;;7.70;99.90;;;;;;4991422;28;20297;-71
2022/04/29 06:01:21;;;;;;;15.40;8.70;;;7.90;99.90;;;;;;4991049;28;20222;-71
2022/04/29 06:03:48;;;;;;;12.00;8.05;;;8.10;99.90;;;;;;4990681;28;20241;-71
2022/04/29 06:06:15;;;;;;;10.18;7.70;;;8.20;99.90;;;;;;4991843;28;20263;-72
2022/04/29 06:08:41;;;;;;;11.95;7.45;;;8.40;99.90;;;;;;4991415;28;20208;-71
2022/04/29 06:11:08;;;;;;;11.10;8.10;;;8.70;99.90;;;;;;4991042;28;20273;-71
2022/04/29 06:13:37;;;;;;;10.60;7.85;;;9.10;99.90;;;;;;4991121;28;20214;-70
2022/04/29 06:16:05;;;;;;;8.25;7.50;;;9.60;99.90;;;;;;4991434;28;20239;-71
2022/04/29 06:18:33;;;;;;;8.90;7.57;;;9.90;99.90;;;;;;4990217;28;20216;-71
2022/04/29 06:20:59;;;;;;;7.60;6.73;;;10.40;99.90;;;;;;4990984;28;20549;-72
2022/04/29 06:23:26;;;;;;;8.33;7.00;;;10.50;99.90;;;;;;4991405;28;20894;-71
2022/04/29 06:25:53;;;;;;;11.37;8.03;;;10.40;99.90;;;;;;4991268;28;20924;-71
2022/04/29 06:28:20;;;;;;;7.87;6.90;;;10.30;99.90;;;;;;4991260;28;21034;-71
2022/04/29 06:30:48;;;;;;;11.73;7.07;;;10.40;99.90;;;;;;4990561;28;20541;-72
2022/04/29 06:33:15;;;;;;;10.90;7.20;;;10.80;99.90;;;;;;4990536;28;20470;-71
2022/04/29 06:35:42;;;;;;;7.50;6.60;;;11.10;99.90;;;;;;4981579;28;20954;-71
2022/04/29 06:38:09;;;;;;;8.03;7.23;;;11.30;99.90;;;;;;4983086;28;20470;-71
2022/04/29 06:40:36;;;;;;;7.50;6.80;;;11.50;99.90;;;;;;4990629;28;20459;-72
2022/04/29 06:43:03;;;;;;;8.80;7.50;;;11.50;99.90;;;;;;4991155;28;20873;-70
2022/04/29 06:45:29;;;;;;;9.10;6.47;;;11.80;99.90;;;;;;4990835;28;20533;-70
2022/04/29 06:47:57;;;;;;;8.70;6.80;;;12.40;99.90;;;;;;4991055;28;20537;-71
2022/04/29 06:50:24;;;;;;;8.00;7.10;;;12.90;99.90;;;;;;4992593;28;20498;-70
2022/04/29 06:52:51;;;;;;;6.90;6.20;;;13.20;99.90;;;;;;4995193;28;20471;-70
2022/04/29 06:55:18;;;;;;;8.50;6.80;;;13.50;99.90;;;;;;4994897;28;20494;-70
2022/04/29 06:57:46;;;;;;;9.17;6.40;;;13.90;99.90;;;;;;4995207;28;20467;-70
2022/04/29 07:00:14;;;;;;;9.97;7.00;;;14.10;99.90;;;;;;4994103;28;20877;-71
2022/04/29 07:02:41;;;;;;;7.50;6.70;;;14.50;99.90;;;;;;4994173;28;20493;-70
2022/04/29 07:05:09;;;;;;;7.20;6.60;;;14.90;99.90;;;;;;4994206;28;20490;-70
2022/04/29 07:07:36;;;;;;;6.20;5.70;;;15.20;99.90;;;;;;4994645;28;20932;-71
2022/04/29 07:10:03;;;;;;;7.50;5.67;;;15.40;99.90;;;;;;4993918;28;20515;-70
2022/04/29 07:12:31;;;;;;;6.30;5.90;;;16.10;99.90;;;;;;4994549;28;20466;-70
2022/04/29 07:14:58;;;;;;;7.50;6.80;;;15.90;99.90;;;;;;4993958;28;20592;-70
2022/04/29 07:17:25;;;;;;;9.07;6.43;;;15.70;99.90;;;;;;4994404;28;20497;-70
2022/04/29 07:19:52;;;;;;;6.67;6.07;;;14.90;99.90;;;;;;4992933;28;20608;-70
2022/04/29 07:22:20;;;;;;;9.43;6.67;;;15.00;99.90;;;;;;4994345;28;20584;-69
2022/04/29 07:24:47;;;;;;;8.10;6.40;;;15.20;99.90;;;;;;4992173;28;20809;-70
2022/04/29 07:27:14;;;;;;;6.50;5.57;;;14.90;99.90;;;;;;4985610;28;20463;-70
2022/04/29 07:29:40;;;;;;;13.13;6.37;;;14.40;99.90;;;;;;4993397;28;20569;-69
2022/04/29 07:32:08;;;;;;;6.10;5.37;;;14.20;99.90;;;;;;4993553;28;20521;-70
2022/04/29 07:42:49;;;;;;;8.40;6.43;;;13.70;99.90;;;;;;4993894;28;20450;-71
2022/04/29 07:45:17;;;;;;;7.13;6.30;;;13.30;99.90;;;;;;4994143;28;20526;-70
2022/04/29 07:47:43;;;;;;;7.00;6.27;;;12.80;99.90;;;;;;4993574;28;20474;-70
2022/04/29 07:50:11;;;;;;;7.13;6.40;;;12.80;99.90;;;;;;4992456;28;20493;-70
2022/04/29 07:52:40;;;;;;;7.07;6.00;;;12.60;99.90;;;;;;4993863;28;20832;-70
2022/04/29 07:55:07;;;;;;;8.07;7.27;;;12.60;99.90;;;;;;4993469;28;20491;-71
2022/04/29 07:57:34;;;;;;;8.57;7.50;;;12.50;99.90;;;;;;4990900;28;20466;-70
2022/04/29 08:00:01;;;;;;;7.37;6.43;;;12.60;99.90;;;;;;4993641;28;20513;-70
2022/04/29 08:02:27;;;;;;;8.90;5.90;;;12.70;99.90;;;;;;4992181;28;20881;-70
2022/04/29 08:04:54;;;;;;;7.07;6.37;;;12.70;99.90;;;;;;4992968;28;20471;-70
2022/04/29 08:07:20;;;;;;;12.90;6.33;;;12.80;99.90;;;;;;4993664;28;20459;-70
2022/04/29 08:09:48;;;;;;;7.00;6.30;;;12.80;99.90;;;;;;4992942;28;20991;-70
2022/04/29 08:12:15;;;;;;;9.43;5.67;;;12.80;99.90;;;;;;4993324;28;20620;-70
2022/04/29 08:14:44;;;;;;;11.20;7.17;;;12.80;99.90;;;;;;4993270;28;20471;-71
2022/04/29 08:17:12;;;;;;;10.40;5.73;;;12.80;99.90;;;;;;4993020;28;20483;-71
2022/04/29 08:19:38;;;;;;;9.83;5.80;;;12.80;99.90;;;;;;4992708;28;20514;-70
2022/04/29 08:22:05;;;;;;;8.30;5.50;;;12.90;99.90;;;;;;4993573;28;20540;-70
2022/04/29 08:24:32;;;;;;;5.57;5.07;;;12.90;99.90;;;;;;4994256;28;20467;-71
2022/04/29 08:27:00;;;;;;;7.20;5.40;;;12.90;99.90;;;;;;4994265;28;20838;-72
2022/04/29 08:29:26;;;;;;;7.40;5.80;;;13.00;99.90;;;;;;4993686;28;20965;-72
2022/04/29 08:31:53;;;;;;;6.60;5.97;;;13.00;99.90;;;;;;4992487;28;20473;-72
2022/04/29 08:34:20;;;;;;;7.63;5.97;;;13.00;99.90;;;;;;4992233;28;20537;-73
2022/04/29 08:36:47;;;;;;;9.30;5.30;;;13.00;99.90;;;;;;4993028;28;20995;-72
2022/04/29 08:39:13;;;;;;;10.10;5.80;;;12.90;99.90;;;;;;4992844;28;20522;-72
2022/04/29 08:41:40;;;;;;;5.67;5.17;;;12.80;99.90;;;;;;4992404;28;20510;-72
2022/04/29 08:44:10;;;;;;;7.67;5.67;;;12.80;99.90;;;;;;4992723;28;20466;-72
2022/04/29 08:46:39;;;;;;;6.37;4.90;;;12.90;99.90;;;;;;4982090;28;20504;-73
2022/04/29 08:49:07;;;;;;;9.03;5.70;;;13.00;99.90;;;;;;4983998;28;20552;-72
2022/04/29 08:51:34;;;;;;;7.20;5.57;;;13.00;99.90;;;;;;4992253;28;20538;-72
2022/04/29 08:54:01;;;;;;;5.63;5.13;;;13.00;99.90;;;;;;4992646;28;20463;-72
2022/04/29 08:59:14;;;;;;;7.63;6.17;;;12.70;99.90;;;;;;4992562;28;20450;-72
2022/04/29 09:01:43;;;;;;;7.10;5.60;;;12.90;99.90;;;;;;4992398;28;20810;-72
2022/04/29 09:04:09;;;;;;;7.27;5.73;;;13.00;99.90;;;;;;4991768;28;20541;-72
2022/04/29 09:06:47;;;;;;;5.13;4.50;;;13.20;99.90;;;;;;4992723;28;20561;-72
2022/04/29 09:09:14;;;;;;;6.10;5.10;;;13.20;99.90;;;;;;4992229;28;20513;-72
2022/04/29 09:11:41;;;;;;;4.67;4.20;;;13.30;99.90;;;;;;4991869;28;20493;-72
2022/04/29 09:14:22;;;;;;;5.33;4.50;;;13.40;99.90;;;;;;4992106;28;20467;-72
2022/04/29 09:16:49;;;;;;;6.53;5.27;;;13.40;99.90;;;;;;4992227;28;21061;-72
2022/04/29 09:19:30;;;;;;;7.37;4.90;;;13.60;99.90;;;;;;4991231;28;20466;-72
2022/04/29 09:22:05;;;;;;;7.23;5.20;;;13.80;99.90;;;;;;4992230;28;20823;-72
2022/04/29 09:24:31;;;;;;;5.63;5.03;;;14.00;99.90;;;;;;4990238;28;20468;-73
2022/04/29 09:27:00;;;;;;;4.70;4.30;;;14.20;99.90;;;;;;4992004;28;20486;-72
2022/04/29 09:29:29;;;;;;;5.73;4.50;;;14.30;99.90;;;;;;4992468;28;20553;-72
2022/04/29 09:31:58;;;;;;;7.97;4.90;;;14.20;99.90;;;;;;4991572;28;20836;-73
2022/04/29 09:34:43;;;;;;;5.67;5.13;;;14.20;99.90;;;;;;4991004;28;20557;-72
2022/04/29 09:37:15;;;;;;;5.13;4.67;;;14.10;99.90;;;;;;4991925;28;20529;-72
2022/04/29 09:39:50;;;;;;;5.23;4.73;;;14.10;99.90;;;;;;4991284;28;20554;-72
2022/04/29 09:42:17;;;;;;;6.10;5.47;;;14.00;99.90;;;;;;4991965;28;20484;-72
2022/04/29 09:44:45;;;;;;;5.87;5.20;;;14.10;99.90;;;;;;4991648;28;20467;-72
2022/04/29 09:47:13;;;;;;;7.03;4.90;;;14.10;99.90;;;;;;4991444;28;21019;-72
2022/04/29 09:49:41;;;;;;;8.03;5.40;;;14.10;99.90;;;;;;4990953;28;20463;-72
2022/04/29 09:52:08;;;;;;;7.90;4.97;;;14.10;99.90;;;;;;4991727;28;20636;-72
2022/04/29 09:54:37;;;;;;;7.63;4.73;;;14.10;99.90;;;;;;4991881;28;20978;-73
2022/04/29 09:57:09;;;;;;;6.63;5.60;;;14.10;99.90;;;;;;4989075;28;20529;-72
2022/04/29 09:59:37;;;;;;;10.47;5.87;;;14.00;99.90;;;;;;4991246;28;20473;-72
2022/04/29 10:02:06;;;;;;;7.30;4.70;;;14.00;99.90;;;;;;4991566;28;20526;-72
2022/04/29 10:04:35;;;;;;;6.90;4.37;;;14.00;99.90;;;;;;4991444;28;20967;-72
2022/04/29 10:07:04;;;;;;;4.27;3.87;;;14.20;99.90;;;;;;4991522;28;20955;-72
2022/04/29 10:09:33;;;;;;;7.43;4.33;;;14.30;99.90;;;;;;4991170;28;20463;-72
2022/04/29 10:12:02;;;;;;;4.43;4.03;;;14.30;99.90;;;;;;4991260;28;20910;-72
2022/04/29 10:14:29;;;;;;;4.80;4.43;;;14.50;99.90;;;;;;4991541;28;20518;-72
2022/04/29 10:22:33;;;;;;;6.90;5.10;;;14.90;99.90;;;;;;4972204;28;20803;-70
2022/04/29 10:25:00;;;;;;;5.30;4.03;;;14.90;99.90;;;;;;4974406;28;20460;-70
2022/04/29 10:27:28;;;;;;;9.03;4.70;;;14.80;99.90;;;;;;4977311;28;20764;-71
2022/04/29 10:29:55;;;;;;;5.00;4.60;;;14.90;99.90;;;;;;4976247;28;20526;-70
2022/04/29 10:32:21;;;;;;;5.90;5.20;;;14.90;99.90;;;;;;4976172;28;20851;-70
2022/04/29 10:34:54;;;;;;;5.37;4.90;;;15.00;99.90;;;;;;4979037;28;20952;-69
2022/04/29 10:37:32;;;;;;;4.43;4.13;;;15.00;99.90;;;;;;4981442;28;20471;-70
2022/04/29 10:40:10;;;;;;;5.80;4.40;;;15.00;99.90;;;;;;4977718;28;20471;-70
2022/04/29 10:43:05;;;;;;;5.73;5.13;;;15.00;99.90;;;;;;4976808;28;20493;-70
2022/04/29 10:45:31;;;;;;;5.47;4.97;;;15.00;99.90;;;;;;4976636;28;20483;-71
2022/04/29 10:47:58;;;;;;;5.50;5.10;;;15.20;99.90;;;;;;4974227;28;20500;-69
2022/04/29 10:50:39;;;;;;;5.23;4.80;;;15.30;99.90;;;;;;4989314;28;20506;-69
2022/04/29 10:53:06;;;;;;;5.93;5.27;;;15.40;99.90;;;;;;4992589;28;20463;-69
2022/04/29 10:55:33;;;;;;;5.17;4.67;;;15.30;99.90;;;;;;4993489;28;20480;-68
2022/04/29 10:58:04;;;;;;;5.43;4.03;;;15.20;99.90;;;;;;4993196;28;20518;-70
2022/04/29 11:00:33;;;;;;;5.70;5.20;;;15.20;99.90;;;;;;4993992;28;20475;-71
2022/04/29 11:03:37;;;;;;;6.90;4.20;;;15.30;99.90;;;;;;4992898;28;20849;-69
2022/04/29 11:06:10;;;;;;;7.10;3.97;;;15.30;99.90;;;;;;4995594;28;20515;-71
2022/04/29 11:08:36;;;;;;;6.87;4.17;;;15.40;99.90;;;;;;4997290;28;20468;-71
2022/04/29 11:11:03;;;;;;;3.93;3.63;;;15.40;99.90;;;;;;4995764;28;20459;-71
2022/04/29 11:13:32;;;;;;;9.23;4.00;;;15.40;99.90;;;;;;4996593;28;20459;-70
2022/04/29 11:16:10;;;;;;;4.67;4.30;;;15.50;99.90;;;;;;4982941;28;20899;-69
2022/04/29 11:18:37;;;;;;;5.40;4.03;;;15.50;99.90;;;;;;4975264;28;20471;-69
2022/04/29 11:26:46;;;;;;;5.47;4.70;;;15.50;99.90;;;;;;4974744;28;20806;-69
2022/04/29 11:29:13;;;;;;;5.73;3.90;;;15.60;99.90;;;;;;4974772;28;20986;-70
2022/04/29 11:31:40;;;;;;;4.70;4.20;;;15.50;99.90;;;;;;4974934;28;20518;-69
2022/04/29 11:34:08;;;;;;;4.80;4.23;;;15.60;99.90;;;;;;4974108;28;20503;-69
2022/04/29 11:36:36;;;;;;;7.60;4.37;;;15.70;99.90;;;;;;4974432;28;20988;-69
2022/04/29 11:39:09;;;;;;;4.83;4.43;;;15.70;99.90;;;;;;4974576;28;20479;-70
2022/04/29 11:41:35;;;;;;;7.60;4.87;;;15.80;99.90;;;;;;4974335;28;20495;-69
2022/04/29 11:44:03;;;;;;;4.53;4.17;;;15.80;99.90;;;;;;4974477;28;20957;-68
2022/04/29 11:46:30;;;;;;;6.57;4.60;;;15.80;99.90;;;;;;4974780;28;20483;-68
2022/04/29 11:48:59;;;;;;;8.13;4.17;;;15.70;99.90;;;;;;4973590;28;20530;-70
2022/04/29 11:51:26;;;;;;;4.33;4.00;;;15.80;99.90;;;;;;4974012;28;20463;-69
2022/04/29 11:53:57;;;;;;;7.77;4.70;;;15.90;99.90;;;;;;4974276;28;20471;-70
2022/04/29 11:56:37;;;;;;;5.30;4.40;;;15.90;99.90;;;;;;4973285;28;20492;-69
2022/04/29 11:59:04;;;;;;;4.40;4.00;;;16.00;99.90;;;;;;4974299;28;20459;-68
2022/04/29 12:01:32;;;;;;;5.97;4.57;;;16.20;99.90;;;;;;4973738;28;20492;-69
2022/04/29 12:03:58;;;;;;;4.27;3.87;;;16.30;99.40;;;;;;4973503;28;20463;-69
2022/04/29 12:06:25;;;;;;;5.80;4.67;;;16.30;99.70;;;;;;4974171;28;20542;-67
2022/04/29 12:08:52;;;;;;;5.07;4.67;;;16.30;99.00;;;;;;4974634;28;20471;-68
2022/04/29 12:11:28;;;;;;;4.90;4.20;;;16.30;99.00;;;;;;4974024;28;20621;-67
2022/04/29 12:13:55;;;;;;;4.80;4.30;;;16.40;99.20;;;;;;4974237;28;20471;-68
2022/04/29 12:16:22;;;;;;;8.73;4.90;;;16.40;98.90;;;;;;4974399;28;20867;-68
2022/04/29 12:18:50;;;;;;;4.97;4.57;;;16.50;98.80;;;;;;4973284;28;20493;-68
2022/04/29 12:21:25;;;;;;;9.70;4.20;;;16.60;98.50;;;;;;4973644;28;20555;-67
2022/04/29 12:23:52;;;;;;;3.90;3.70;;;16.70;97.60;;;;;;4973989;28;20887;-68
2022/04/29 12:26:18;;;;;;;4.77;4.00;;;16.70;97.70;;;;;;4974237;28;20484;-68
2022/04/29 12:28:55;;;;;;;9.93;4.50;;;16.70;97.80;;;;;;4973972;28;20470;-68
2022/04/29 12:36:53;;;;;;;3.60;3.30;;;16.70;97.10;;;;;;4973598;28;20606;-68
2022/04/29 12:39:24;;;;;;;3.90;3.60;;;16.80;97.40;;;;;;4973308;28;20492;-69
2022/04/29 12:42:02;;;;;;;4.20;3.80;;;16.80;96.70;;;;;;4972826;28;21055;-69
2022/04/29 12:45:05;;;;;;;4.13;3.80;;;16.90;96.40;;;;;;4973447;28;20467;-69
2022/04/29 12:47:33;;;;;;;3.63;3.43;;;16.90;96.20;;;;;;4965380;28;20984;-67
2022/04/29 12:50:16;;;;;;;3.43;3.23;;;16.80;95.90;;;;;;4972007;28;20548;-67
2022/04/29 12:52:50;;;;;;;3.30;3.00;;;16.80;95.70;;;;;;4973121;28;20495;-67
2022/04/29 12:55:17;;;;;;;3.70;3.10;;;16.80;94.90;;;;;;4972939;28;20492;-67
2022/04/29 12:57:44;;;;;;;3.90;3.60;;;16.70;94.60;;;;;;4973216;28;20489;-67
2022/04/29 13:00:21;;;;;;;6.60;4.20;;;16.70;94.90;;;;;;4972517;28;20464;-68
2022/04/29 13:02:59;;;;;;;4.93;4.73;;;16.70;94.60;;;;;;4972752;28;20549;-68
2022/04/29 13:05:25;;;;;;;19.23;17.20;;;16.70;94.40;;;;;;4972655;28;20568;-68
2022/04/29 13:07:52;;;;;;;8.70;4.17;;;16.80;93.90;;;;;;4973320;28;20551;-68
2022/04/29 13:10:19;;;;;;;2.93;2.77;;;16.80;93.50;;;;;;4972472;28;20542;-68
2022/04/29 13:12:45;;;;;;;3.40;2.93;;;16.80;93.00;;;;;;4972903;28;20542;-68
2022/04/29 13:15:13;;;;;;;3.13;2.30;;;16.70;92.40;;;;;;4972779;28;20502;-69
2022/04/29 13:17:40;;;;;;;3.40;2.90;;;16.60;93.20;;;;;;4972646;28;20468;-70
2022/04/29 13:20:09;;;;;;;2.47;2.37;;;16.70;92.90;;;;;;4971504;28;20470;-71
2022/04/29 13:22:37;;;;;;;2.80;2.63;;;16.70;92.20;;;;;;4972735;28;20833;-70
2022/04/29 13:25:05;;;;;;;2.63;2.43;;;16.70;92.10;;;;;;4971631;28;20519;-69
2022/04/29 13:27:33;;;;;;;3.00;2.90;;;16.70;92.60;;;;;;4972425;28;20491;-69
2022/04/29 13:29:59;;;;;;;2.70;2.50;;;16.70;92.90;;;;;;4972011;28;20526;-69
2022/04/29 13:32:27;;;;;;;3.60;3.40;;;16.60;92.80;;;;;;4972274;28;20468;-69
2022/04/29 13:34:54;;;;;;;5.27;2.60;;;16.50;93.00;;;;;;4972158;28;20467;-69
2022/04/29 13:37:21;;;;;;;3.73;3.33;;;16.60;93.00;;;;;;4972440;28;20534;-69
2022/04/29 13:39:48;;;;;;;3.57;3.40;;;16.60;93.30;;;;;;4971956;28;20982;-70
2022/04/29 13:42:15;;;;;;;5.63;5.27;;;16.70;93.10;;;;;;4971938;28;20483;-70
2022/04/29 13:44:43;;;;;;;4.90;4.50;;;16.60;93.20;;;;;;4972365;28;20499;-70
2022/04/29 13:47:10;;;;;;;4.37;4.00;;;16.50;93.10;;;;;;4971525;28;20550;-70
2022/04/29 13:49:38;;;;;;;9.30;4.23;;;16.50;93.30;;;;;;4971112;28;20884;-70
2022/04/29 13:54:46;;;;;;;6.30;5.70;;;16.50;93.10;;;;;;4971555;28;20459;-69
2022/04/29 13:57:13;;;;;;;7.70;3.70;;;16.60;93.00;;;;;;4971836;28;20487;-69
2022/04/29 13:59:40;;;;;;;4.50;4.20;;;16.50;93.50;;;;;;4971842;28;20852;-69
2022/04/29 14:02:06;;;;;;;5.10;4.60;;;16.50;93.30;;;;;;4971721;28;20475;-70
2022/04/29 14:04:33;;;;;;;4.20;3.90;;;16.50;92.60;;;;;;4971377;28;20526;-70
2022/04/29 14:07:01;;;;;;;8.20;3.83;;;16.40;93.00;;;;;;4971994;28;20490;-70
2022/04/29 14:09:29;;;;;;;4.57;3.57;;;16.50;93.30;;;;;;4971849;28;20470;-70
2022/04/29 14:11:56;;;;;;;3.97;3.23;;;16.40;93.10;;;;;;4971620;28;20460;-70
2022/04/29 14:14:23;;;;;;;4.67;4.30;;;16.40;93.00;;;;;;4964672;28;20479;-70
2022/04/29 14:16:52;;;;;;;9.60;4.90;;;16.40;93.20;;;;;;4971618;28;20498;-69
2022/04/29 14:19:19;;;;;;;5.57;4.60;;;16.50;93.10;;;;;;4970812;28;20467;-71
2022/04/29 14:21:46;;;;;;;4.23;3.93;;;16.50;93.20;;;;;;4971537;28;20487;-69
2022/04/29 14:24:14;;;;;;;8.17;4.83;;;16.50;93.20;;;;;;4971642;28;20904;-69
2022/04/29 14:26:41;;;;;;;11.87;5.77;;;16.50;93.20;;;;;;4972014;28;20870;-69
2022/04/29 14:29:07;;;;;;;5.97;5.30;;;16.30;93.50;;;;;;4971850;28;20464;-69
2022/04/29 14:31:34;;;;;;;8.10;5.73;;;16.30;93.90;;;;;;4971449;28;20472;-69
2022/04/29 14:34:01;;;;;;;5.33;4.83;;;16.30;94.20;;;;;;4971325;28;20578;-69
2022/04/29 14:36:29;;;;;;;5.27;4.50;;;16.20;93.80;;;;;;4971493;28;20915;-68
2022/04/29 14:38:56;;;;;;;7.10;6.00;;;16.20;93.80;;;;;;4971588;28;20499;-69
2022/04/29 14:41:24;;;;;;;4.67;4.10;;;16.20;93.60;;;;;;4971384;28;20762;-69
2022/04/29 14:43:50;;;;;;;4.70;3.80;;;16.30;93.60;;;;;;4971616;28;20976;-69
2022/04/29 14:46:18;;;;;;;5.37;4.37;;;16.40;93.90;;;;;;4971467;28;20495;-69
2022/04/29 14:48:44;;;;;;;6.77;4.90;;;16.40;93.90;;;;;;4970437;28;20529;-69
2022/04/29 14:51:11;;;;;;;8.77;5.30;;;16.40;94.40;;;;;;4971026;28;20910;-70
2022/04/29 14:53:39;;;;;;;9.53;5.53;;;16.40;94.40;;;;;;4971452;28;20508;-70
2022/04/29 14:56:06;;;;;;;6.77;4.20;;;16.40;94.20;;;;;;4971341;28;20550;-69
2022/04/29 14:58:34;;;;;;;7.73;6.50;;;16.40;94.50;;;;;;4971200;28;20468;-69
2022/04/29 15:01:01;;;;;;;10.27;6.30;;;16.20;94.40;;;;;;4970941;28;20468;-69
2022/04/29 15:03:28;;;;;;;14.80;8.77;;;16.10;94.90;;;;;;4970134;28;20491;-70
2022/04/29 15:05:56;;;;;;;12.07;7.83;;;16.10;95.40;;;;;;4971165;28;20880;-69
2022/04/29 15:08:23;;;;;;;16.43;7.70;;;15.90;95.90;;;;;;4971316;28;20474;-70
2022/04/29 15:16:20;;;;;;;7.37;6.07;;;15.70;96.10;;;;;;4974550;28;20593;-69
2022/04/29 15:18:47;;;;;;;7.07;6.13;;;15.70;96.30;;;;;;4974012;28;20495;-70
2022/04/29 15:21:14;;;;;;;5.50;5.10;;;15.70;96.30;;;;;;4974451;28;20952;-70
2022/04/29 15:23:41;;;;;;;8.53;6.43;;;15.70;97.00;;;;;;4974615;28;20518;-70
2022/04/29 15:26:07;;;;;;;7.07;6.37;;;15.60;97.10;;;;;;4973822;28;20487;-70
2022/04/29 15:28:35;;;;;;;6.70;6.10;;;15.60;97.50;;;;;;4974633;28;20567;-70
2022/04/29 15:31:03;;;;;;;6.10;5.70;;;15.60;97.90;;;;;;4974771;28;20696;-70
2022/04/29 15:33:29;;;;;;;5.93;5.43;;;15.50;98.10;;;;;;4977988;28;20463;-70
2022/04/29 15:35:56;;;;;;;5.60;5.30;;;15.50;98.30;;;;;;4981512;28;20487;-70
2022/04/29 15:38:23;;;;;;;5.83;5.43;;;15.50;98.60;;;;;;4974473;28;20567;-69
2022/04/29 15:40:53;;;;;;;5.20;4.80;;;15.30;98.70;;;;;;4973831;28;20459;-69
2022/04/29 15:43:22;;;;;;;6.60;6.00;;;15.20;98.80;;;;;;4974048;28;20491;-69
2022/04/29 15:45:52;;;;;;;6.10;5.60;;;15.00;99.00;;;;;;4973891;28;21007;-70
2022/04/29 15:48:20;;;;;;;5.30;5.00;;;15.00;99.60;;;;;;4973477;28;20464;-69
2022/04/29 15:50:48;;;;;;;5.57;5.10;;;14.90;99.90;;;;;;4973631;28;20825;-70
2022/04/29 15:53:16;;;;;;;6.70;6.20;;;14.90;99.90;;;;;;4974709;28;20464;-69
2022/04/29 15:55:44;;;;;;;6.00;5.60;;;14.90;99.90;;;;;;4974003;28;20516;-69
2022/04/29 15:58:13;;;;;;;6.60;6.07;;;14.90;99.90;;;;;;4974069;28;20937;-69
2022/04/29 16:00:40;;;;;;;5.73;5.20;;;14.80;99.90;;;;;;4973777;28;20492;-69
2022/04/29 16:03:09;;;;;;;5.70;5.23;;;14.80;99.90;;;;;;4973452;28;20488;-70
2022/04/29 16:05:36;;;;;;;5.60;5.30;;;14.80;99.90;;;;;;4973759;28;20484;-69
2022/04/29 16:08:04;;;;;;;6.57;5.17;;;14.70;99.90;;;;;;4974137;28;20530;-69
2022/04/29 16:10:30;;;;;;;4.90;4.53;;;14.60;99.90;;;;;;4973988;28;20472;-69
2022/04/29 16:12:57;;;;;;;4.30;4.10;;;14.50;99.90;;;;;;4974318;28;20495;-70
2022/04/29 16:15:24;;;;;;;8.33;7.63;;;14.50;99.90;;;;;;4968737;28;20582;-70
2022/04/29 16:20:37;;;;;;;5.30;4.90;;;14.50;99.90;;;;;;4973241;28;20447;-70
2022/04/29 16:25:50;;;;;;;5.67;5.27;;;14.30;99.90;;;;;;4973834;28;20814;-70
2022/04/29 16:28:17;;;;;;;6.30;5.07;;;14.20;99.90;;;;;;4973634;28;20472;-70
2022/04/29 16:30:44;;;;;;;9.00;5.07;;;14.20;99.90;;;;;;4972938;28;21034;-70
2022/04/29 16:33:12;;;;;;;4.60;4.30;;;14.10;99.90;;;;;;4972716;28;20864;-70
2022/04/29 16:35:41;;;;;;;5.63;5.23;;;14.10;99.90;;;;;;4973921;28;20492;-70
2022/04/29 16:38:07;;;;;;;6.90;5.73;;;14.00;99.90;;;;;;4973436;28;20472;-70
2022/04/29 16:40:34;;;;;;;5.93;5.10;;;14.00;99.90;;;;;;4973194;28;20845;-70
2022/04/29 16:43:04;;;;;;;4.70;4.27;;;13.90;99.90;;;;;;4973234;28;20495;-70
2022/04/29 16:45:31;;;;;;;5.17;4.77;;;13.90;99.90;;;;;;4972283;28;20494;-70
2022/04/29 16:47:58;;;;;;;7.07;6.50;;;13.80;99.90;;;;;;4967519;28;20547;-70
2022/04/29 16:50:25;;;;;;;8.43;4.43;;;13.80;99.90;;;;;;4972355;28;20460;-70
2022/04/29 16:52:53;;;;;;;4.60;4.30;;;13.80;99.90;;;;;;4973509;28;20464;-70
2022/04/29 16:55:20;;;;;;;5.80;5.23;;;13.70;99.90;;;;;;4973467;28;20558;-70
2022/04/29 17:00:31;;;;;;;5.80;5.27;;;13.50;99.90;;;;;;4974515;28;20443;-70
2022/04/29 17:02:59;;;;;;;6.37;4.90;;;13.50;99.90;;;;;;4982756;28;20487;-71
2022/04/29 17:05:25;;;;;;;6.10;5.63;;;13.40;99.90;;;;;;4983695;28;20546;-71
2022/04/29 17:07:55;;;;;;;6.63;5.93;;;13.40;99.90;;;;;;4984112;28;20841;-71
2022/04/29 17:10:22;;;;;;;5.23;4.73;;;13.40;99.90;;;;;;4982832;28;20888;-71
2022/04/29 17:12:49;;;;;;;6.30;5.70;;;13.30;99.90;;;;;;4982932;28;20859;-70
2022/04/29 17:15:15;;;;;;;5.37;5.07;;;13.30;99.90;;;;;;4982113;28;21001;-71
2022/04/29 17:17:42;;;;;;;4.93;4.60;;;13.30;99.90;;;;;;4980286;28;20472;-71
2022/04/29 17:20:10;;;;;;;6.40;5.80;;;13.30;99.90;;;;;;4977366;28;20464;-71
2022/04/29 17:22:37;;;;;;;5.90;5.40;;;13.40;99.90;;;;;;4973972;28;20811;-70
2022/04/29 17:25:06;;;;;;;6.77;6.00;;;13.50;99.90;;;;;;4973852;28;20611;-70
2022/04/29 17:27:32;;;;;;;7.97;7.03;;;13.50;99.90;;;;;;4973521;28;20495;-70
2022/04/29 17:30:00;;;;;;;9.70;6.97;;;13.50;99.90;;;;;;4974536;28;20515;-69
2022/04/29 17:32:26;;;;;;;9.80;7.07;;;13.40;99.90;;;;;;4974978;28;20631;-71
2022/04/29 17:34:54;;;;;;;6.17;5.60;;;13.30;99.90;;;;;;4971118;28;20467;-70
2022/04/29 17:37:20;;;;;;;6.10;5.60;;;13.30;99.90;;;;;;4969737;28;20467;-70
2022/04/29 17:42:33;;;;;;;5.40;4.93;;;13.10;99.90;;;;;;4972470;28;20499;-69